sensor_id;sensor_type;location;lat;lon;timestamp;pressure;altitude;pressure_sealevel;temperature;humidity
22389;BME280;11362;48.102;11.620;2023-07-13T00:00:53;95244.00;;;26.49;48.27
22389;BME280;11362;48.102;11.620;2023-07-13T00:03:18;95244.00;;;26.49;48.31
22389;BME280;11362;48.102;11.620;2023-07-13T00:05:43;95238.44;;;26.49;48.29
22389;BME280;11362;48.102;11.620;2023-07-13T00:08:09;95235.66;;;26.49;48.15
22389;BME280;11362;48.102;11.620;2023-07-13T00:10:39;95228.53;;;26.48;48.51
22389;BME280;11362;48.102;11.620;2023-07-13T00:13:05;95224.50;;;26.49;48.31
22389;BME280;11362;48.102;11.620;2023-07-13T00:15:30;95231.31;;;26.48;48.25
22389;BME280;11362;48.102;11.620;2023-07-13T00:17:55;95222.97;;;26.48;48.23
22389;BME280;11362;48.102;11.620;2023-07-13T00:20:23;95228.53;;;26.48;48.46
22389;BME280;11362;48.102;11.620;2023-07-13T00:22:49;95239.66;;;26.48;48.49
22389;BME280;11362;48.102;11.620;2023-07-13T00:25:15;95245.66;;;26.47;48.34
22389;BME280;11362;48.102;11.620;2023-07-13T00:27:42;95245.25;;;26.48;48.26
22389;BME280;11362;48.102;11.620;2023-07-13T00:30:07;95246.47;;;26.47;48.53
22389;BME280;11362;48.102;11.620;2023-07-13T00:32:32;95235.31;;;26.47;48.18
22389;BME280;11362;48.102;11.620;2023-07-13T00:34:58;95244.91;;;26.46;48.23
22389;BME280;11362;48.102;11.620;2023-07-13T00:37:23;95260.06;;;26.45;48.10
22389;BME280;11362;48.102;11.620;2023-07-13T00:39:49;95252.03;;;26.47;48.24
22389;BME280;11362;48.102;11.620;2023-07-13T00:42:14;95256.81;;;26.47;48.09
22389;BME280;11362;48.102;11.620;2023-07-13T00:44:39;95256.81;;;26.47;48.06
22389;BME280;11362;48.102;11.620;2023-07-13T00:47:05;95258.81;;;26.46;48.04
22389;BME280;11362;48.102;11.620;2023-07-13T00:49:32;95251.69;;;26.45;48.39
22389;BME280;11362;48.102;11.620;2023-07-13T00:52:02;95243.34;;;26.45;48.54
22389;BME280;11362;48.102;11.620;2023-07-13T00:54:43;95247.69;;;26.46;48.19
22389;BME280;11362;48.102;11.620;2023-07-13T00:57:14;95256.03;;;26.46;48.26
22389;BME280;11362;48.102;11.620;2023-07-13T00:59:43;95244.56;;;26.44;48.04
22389;BME280;11362;48.102;11.620;2023-07-13T01:02:10;95248.91;;;26.45;48.45
22389;BME280;11362;48.102;11.620;2023-07-13T01:04:36;95236.22;;;26.44;48.25
22389;BME280;11362;48.102;11.620;2023-07-13T01:07:02;95231.41;;;26.45;48.09
22389;BME280;11362;48.102;11.620;2023-07-13T01:09:27;95234.97;;;26.45;48.27
22389;BME280;11362;48.102;11.620;2023-07-13T01:11:53;95227.84;;;26.44;48.09
22389;BME280;11362;48.102;11.620;2023-07-13T01:14:18;95219.50;;;26.44;48.00
22389;BME280;11362;48.102;11.620;2023-07-13T01:16:46;95211.91;;;26.45;48.45
22389;BME280;11362;48.102;11.620;2023-07-13T01:21:41;95205.56;;;26.44;48.36
22389;BME280;11362;48.102;11.620;2023-07-13T01:24:07;95202.78;;;26.44;48.42
22389;BME280;11362;48.102;11.620;2023-07-13T01:26:32;95203.97;;;26.43;48.05
22389;BME280;11362;48.102;11.620;2023-07-13T01:28:57;95186.50;;;26.43;48.30
22389;BME280;11362;48.102;11.620;2023-07-13T01:31:23;95190.06;;;26.43;48.34
22389;BME280;11362;48.102;11.620;2023-07-13T01:33:48;95183.28;;;26.44;48.06
22389;BME280;11362;48.102;11.620;2023-07-13T01:36:13;95193.63;;;26.44;48.14
22389;BME280;11362;48.102;11.620;2023-07-13T01:38:39;95196.41;;;26.44;48.06
22389;BME280;11362;48.102;11.620;2023-07-13T01:41:04;95191.63;;;26.44;48.40
22389;BME280;11362;48.102;11.620;2023-07-13T01:43:30;95191.63;;;26.44;48.14
22389;BME280;11362;48.102;11.620;2023-07-13T01:45:55;95187.25;;;26.43;48.09
22389;BME280;11362;48.102;11.620;2023-07-13T01:48:20;95190.84;;;26.44;48.12
22389;BME280;11362;48.102;11.620;2023-07-13T01:50:47;95199.19;;;26.44;47.91
22389;BME280;11362;48.102;11.620;2023-07-13T01:53:12;95205.56;;;26.44;48.21
22389;BME280;11362;48.102;11.620;2023-07-13T01:55:38;95203.97;;;26.43;48.25
22389;BME280;11362;48.102;11.620;2023-07-13T01:58:04;95209.53;;;26.43;48.00
22389;BME280;11362;48.102;11.620;2023-07-13T02:00:29;95211.91;;;26.45;48.18
22389;BME280;11362;48.102;11.620;2023-07-13T02:02:55;95227.06;;;26.44;48.25
22389;BME280;11362;48.102;11.620;2023-07-13T02:05:20;95233.41;;;26.44;48.26
22389;BME280;11362;48.102;11.620;2023-07-13T02:07:45;95234.19;;;26.45;48.07
22389;BME280;11362;48.102;11.620;2023-07-13T02:10:11;95237.78;;;26.45;47.98
22389;BME280;11362;48.102;11.620;2023-07-13T02:12:37;95236.22;;;26.44;47.92
22389;BME280;11362;48.102;11.620;2023-07-13T02:15:04;95240.56;;;26.45;48.02
22389;BME280;11362;48.102;11.620;2023-07-13T02:17:29;95231.41;;;26.45;48.05
22389;BME280;11362;48.102;11.620;2023-07-13T02:19:55;95229.03;;;26.43;48.23
22389;BME280;11362;48.102;11.620;2023-07-13T02:22:21;95232.63;;;26.44;48.16
22389;BME280;11362;48.102;11.620;2023-07-13T02:24:46;95225.50;;;26.43;48.16
22389;BME280;11362;48.102;11.620;2023-07-13T02:27:12;95240.97;;;26.44;47.95
22389;BME280;11362;48.102;11.620;2023-07-13T02:29:37;95231.81;;;26.43;48.15
22389;BME280;11362;48.102;11.620;2023-07-13T02:32:03;95236.22;;;26.44;48.02
22389;BME280;11362;48.102;11.620;2023-07-13T02:34:29;95240.19;;;26.43;47.99
22389;BME280;11362;48.102;11.620;2023-07-13T02:36:55;95239.84;;;26.41;48.02
22389;BME280;11362;48.102;11.620;2023-07-13T02:39:20;95247.78;;;26.43;47.94
22389;BME280;11362;48.102;11.620;2023-07-13T02:41:45;95256.91;;;26.43;48.23
22389;BME280;11362;48.102;11.620;2023-07-13T02:44:13;95254.91;;;26.44;47.85
22389;BME280;11362;48.102;11.620;2023-07-13T02:46:38;95272.06;;;26.42;48.08
22389;BME280;11362;48.102;11.620;2023-07-13T02:49:04;95278.41;;;26.43;47.97
22389;BME280;11362;48.102;11.620;2023-07-13T02:51:30;95281.19;;;26.43;47.98
22389;BME280;11362;48.102;11.620;2023-07-13T02:53:55;95283.19;;;26.42;48.08
22389;BME280;11362;48.102;11.620;2023-07-13T02:56:24;95288.75;;;26.42;47.99
22389;BME280;11362;48.102;11.620;2023-07-13T02:58:50;95287.19;;;26.41;48.14
22389;BME280;11362;48.102;11.620;2023-07-13T03:01:15;95293.56;;;26.42;48.21
22389;BME280;11362;48.102;11.620;2023-07-13T03:03:40;95278.84;;;26.41;48.17
22389;BME280;11362;48.102;11.620;2023-07-13T03:06:05;95278.84;;;26.41;47.89
22389;BME280;11362;48.102;11.620;2023-07-13T03:08:31;95287.19;;;26.41;48.20
22389;BME280;11362;48.102;11.620;2023-07-13T03:11:01;95287.19;;;26.41;48.23
22389;BME280;11362;48.102;11.620;2023-07-13T03:13:27;95280.88;;;26.41;47.85
22389;BME280;11362;48.102;11.620;2023-07-13T03:15:52;95291.22;;;26.40;47.93
22389;BME280;11362;48.102;11.620;2023-07-13T03:18:17;95290.41;;;26.40;47.93
22389;BME280;11362;48.102;11.620;2023-07-13T03:20:43;95296.78;;;26.40;48.09
22389;BME280;11362;48.102;11.620;2023-07-13T03:23:08;95292.78;;;26.41;48.22
22389;BME280;11362;48.102;11.620;2023-07-13T03:25:33;95296.78;;;26.40;48.23
22389;BME280;11362;48.102;11.620;2023-07-13T03:27:58;95295.97;;;26.40;48.12
22389;BME280;11362;48.102;11.620;2023-07-13T03:30:24;95297.56;;;26.41;48.04
22389;BME280;11362;48.102;11.620;2023-07-13T03:32:49;95295.56;;;26.41;48.26
22389;BME280;11362;48.102;11.620;2023-07-13T03:35:14;95297.56;;;26.41;48.01
22389;BME280;11362;48.102;11.620;2023-07-13T03:37:40;95298.00;;;26.39;47.96
22389;BME280;11362;48.102;11.620;2023-07-13T03:40:05;95307.91;;;26.40;47.82
22389;BME280;11362;48.102;11.620;2023-07-13T03:42:31;95312.28;;;26.41;47.93
22389;BME280;11362;48.102;11.620;2023-07-13T03:44:56;95321.84;;;26.40;48.22
22389;BME280;11362;48.102;11.620;2023-07-13T03:47:21;95319.06;;;26.40;47.88
22389;BME280;11362;48.102;11.620;2023-07-13T03:49:47;95309.13;;;26.39;48.05
22389;BME280;11362;48.102;11.620;2023-07-13T03:52:12;95315.06;;;26.41;48.15
22389;BME280;11362;48.102;11.620;2023-07-13T03:54:37;95317.50;;;26.39;47.76
22389;BME280;11362;48.102;11.620;2023-07-13T03:57:03;95319.06;;;26.40;48.09
22389;BME280;11362;48.102;11.620;2023-07-13T03:59:28;95324.63;;;26.40;48.16
22389;BME280;11362;48.102;11.620;2023-07-13T04:01:53;95321.84;;;26.40;47.99
22389;BME280;11362;48.102;11.620;2023-07-13T04:04:18;95327.41;;;26.40;48.12
22389;BME280;11362;48.102;11.620;2023-07-13T04:06:44;95323.84;;;26.40;48.02
22389;BME280;11362;48.102;11.620;2023-07-13T04:09:09;95321.06;;;26.40;47.47
22389;BME280;11362;48.102;11.620;2023-07-13T04:11:34;95319.06;;;26.40;48.04
22389;BME280;11362;48.102;11.620;2023-07-13T04:14:00;95323.06;;;26.39;48.08
22389;BME280;11362;48.102;11.620;2023-07-13T04:16:25;95315.47;;;26.40;47.68
22389;BME280;11362;48.102;11.620;2023-07-13T04:18:51;95319.06;;;26.40;47.66
22389;BME280;11362;48.102;11.620;2023-07-13T04:21:17;95324.63;;;26.40;47.70
22389;BME280;11362;48.102;11.620;2023-07-13T04:23:42;95319.06;;;26.40;47.77
22389;BME280;11362;48.102;11.620;2023-07-13T04:26:07;95324.63;;;26.40;47.67
22389;BME280;11362;48.102;11.620;2023-07-13T04:28:33;95326.63;;;26.40;48.10
22389;BME280;11362;48.102;11.620;2023-07-13T04:30:59;95330.19;;;26.40;48.07
22389;BME280;11362;48.102;11.620;2023-07-13T04:33:25;95324.63;;;26.40;48.02
22389;BME280;11362;48.102;11.620;2023-07-13T04:35:52;95328.63;;;26.39;47.77
22389;BME280;11362;48.102;11.620;2023-07-13T04:38:18;95324.63;;;26.40;47.76
22389;BME280;11362;48.102;11.620;2023-07-13T04:40:47;95328.63;;;26.39;47.99
22389;BME280;11362;48.102;11.620;2023-07-13T04:43:12;95341.34;;;26.40;48.02
22389;BME280;11362;48.102;11.620;2023-07-13T04:45:38;95340.47;;;26.43;47.85
22389;BME280;11362;48.102;11.620;2023-07-13T04:48:03;95346.75;;;26.47;47.90
22389;BME280;11362;48.102;11.620;2023-07-13T04:50:28;95341.53;;;26.49;47.69
22389;BME280;11362;48.102;11.620;2023-07-13T04:52:54;95334.38;;;26.48;47.86
22389;BME280;11362;48.102;11.620;2023-07-13T04:55:20;95336.41;;;26.48;47.38
22389;BME280;11362;48.102;11.620;2023-07-13T04:57:46;95345.53;;;26.48;47.54
22389;BME280;11362;48.102;11.620;2023-07-13T05:00:12;95347.19;;;26.46;47.76
22389;BME280;11362;48.102;11.620;2023-07-13T05:02:38;95363.53;;;26.44;47.52
22389;BME280;11362;48.102;11.620;2023-07-13T05:05:04;95363.97;;;26.42;47.50
22389;BME280;11362;48.102;11.620;2023-07-13T05:07:30;95363.59;;;26.24;47.50
22389;BME280;11362;48.102;11.620;2023-07-13T05:09:55;95357.50;;;25.94;47.64
22389;BME280;11362;48.102;11.620;2023-07-13T05:12:21;95364.22;;;25.96;47.41
22389;BME280;11362;48.102;11.620;2023-07-13T05:14:46;95363.56;;;26.08;47.24
22389;BME280;11362;48.102;11.620;2023-07-13T05:17:11;95364.19;;;26.16;47.00
22389;BME280;11362;48.102;11.620;2023-07-13T05:19:37;95364.09;;;26.19;47.03
22389;BME280;11362;48.102;11.620;2023-07-13T05:22:02;95353.75;;;26.20;47.28
22389;BME280;11362;48.102;11.620;2023-07-13T05:24:28;95358.03;;;26.24;47.71
22389;BME280;11362;48.102;11.620;2023-07-13T05:26:53;95356.81;;;26.25;47.51
22389;BME280;11362;48.102;11.620;2023-07-13T05:29:19;95369.09;;;26.28;47.78
22389;BME280;11362;48.102;11.620;2023-07-13T05:31:45;95368.66;;;26.29;47.48
22389;BME280;11362;48.102;11.620;2023-07-13T05:34:10;95371.81;;;26.31;47.59
22389;BME280;11362;48.102;11.620;2023-07-13T05:36:35;95364.66;;;26.30;47.90
22389;BME280;11362;48.102;11.620;2023-07-13T05:39:02;95377.38;;;26.31;47.91
22389;BME280;11362;48.102;11.620;2023-07-13T05:41:28;95379.69;;;26.33;47.71
22389;BME280;11362;48.102;11.620;2023-07-13T05:43:53;95377.44;;;26.28;48.04
22389;BME280;11362;48.102;11.620;2023-07-13T05:46:18;95381.00;;;26.28;47.87
22389;BME280;11362;48.102;11.620;2023-07-13T05:48:43;95377.44;;;26.28;47.80
22389;BME280;11362;48.102;11.620;2023-07-13T05:51:08;95367.06;;;26.28;47.55
22389;BME280;11362;48.102;11.620;2023-07-13T05:53:34;95373.09;;;26.27;48.02
22389;BME280;11362;48.102;11.620;2023-07-13T05:55:59;95372.72;;;26.25;47.97
22389;BME280;11362;48.102;11.620;2023-07-13T05:58:24;95380.31;;;26.24;47.95
22389;BME280;11362;48.102;11.620;2023-07-13T06:01:05;95371.16;;;26.24;47.84
22389;BME280;11362;48.102;11.620;2023-07-13T06:03:31;95370.75;;;26.25;47.92
22389;BME280;11362;48.102;11.620;2023-07-13T06:05:57;95377.06;;;26.26;48.40
22389;BME280;11362;48.102;11.620;2023-07-13T06:08:22;95383.09;;;26.24;48.15
22389;BME280;11362;48.102;11.620;2023-07-13T06:10:47;95379.97;;;26.22;48.18
22389;BME280;11362;48.102;11.620;2023-07-13T06:13:12;95387.88;;;26.24;48.01
22389;BME280;11362;48.102;11.620;2023-07-13T06:15:38;95387.09;;;26.23;48.24
22389;BME280;11362;48.102;11.620;2023-07-13T06:18:03;95403.88;;;26.20;48.19
22389;BME280;11362;48.102;11.620;2023-07-13T06:20:28;95398.41;;;26.16;48.25
22389;BME280;11362;48.102;11.620;2023-07-13T06:22:54;95400.81;;;26.14;48.50
22389;BME280;11362;48.102;11.620;2023-07-13T06:25:19;95404.81;;;26.13;48.13
22389;BME280;11362;48.102;11.620;2023-07-13T06:27:44;95399.63;;;26.15;48.50
22389;BME280;11362;48.102;11.620;2023-07-13T06:30:10;95411.53;;;26.16;48.14
22389;BME280;11362;48.102;11.620;2023-07-13T06:32:36;95406.75;;;26.16;48.23
22389;BME280;11362;48.102;11.620;2023-07-13T06:35:01;95420.66;;;26.16;48.24
22389;BME280;11362;48.102;11.620;2023-07-13T06:37:26;95418.66;;;26.17;48.21
22389;BME280;11362;48.102;11.620;2023-07-13T06:39:52;95430.94;;;26.19;48.35
22389;BME280;11362;48.102;11.620;2023-07-13T06:42:17;95425.38;;;26.19;48.83
22389;BME280;11362;48.102;11.620;2023-07-13T06:44:42;95428.38;;;26.09;48.25
22389;BME280;11362;48.102;11.620;2023-07-13T06:47:08;95422.88;;;25.66;48.98
22389;BME280;11362;48.102;11.620;2023-07-13T06:49:33;95429.91;;;25.51;49.92
22389;BME280;11362;48.102;11.620;2023-07-13T06:51:58;95431.13;;;25.50;49.84
22389;BME280;11362;48.102;11.620;2023-07-13T06:54:23;95437.53;;;25.24;50.26
22389;BME280;11362;48.102;11.620;2023-07-13T06:56:49;95434.97;;;25.10;50.70
22389;BME280;11362;48.102;11.620;2023-07-13T06:59:14;95439.91;;;24.99;50.73
22389;BME280;11362;48.102;11.620;2023-07-13T07:01:39;95434.00;;;24.97;50.98
22389;BME280;11362;48.102;11.620;2023-07-13T07:04:05;95438.47;;;24.91;50.98
22389;BME280;11362;48.102;11.620;2023-07-13T07:06:30;95433.41;;;24.86;50.93
22389;BME280;11362;48.102;11.620;2023-07-13T07:08:55;95440.22;;;24.82;51.26
22389;BME280;11362;48.102;11.620;2023-07-13T07:11:23;95434.97;;;24.87;51.11
22389;BME280;11362;48.102;11.620;2023-07-13T07:13:53;95446.16;;;24.84;51.43
22389;BME280;11362;48.102;11.620;2023-07-13T07:16:19;95442.94;;;24.85;51.34
22389;BME280;11362;48.102;11.620;2023-07-13T07:18:45;95433.75;;;24.88;51.08
22389;BME280;11362;48.102;11.620;2023-07-13T07:21:10;95426.63;;;24.87;50.89
22389;BME280;11362;48.102;11.620;2023-07-13T07:23:36;95437.97;;;24.73;51.25
22389;BME280;11362;48.102;11.620;2023-07-13T07:26:02;95428.00;;;24.76;51.13
22389;BME280;11362;48.102;11.620;2023-07-13T07:28:27;95428.91;;;24.69;49.71
22389;BME280;11362;48.102;11.620;2023-07-13T07:30:54;95438.91;;;24.63;48.89
22389;BME280;11362;48.102;11.620;2023-07-13T07:33:20;95448.16;;;24.53;48.75
22389;BME280;11362;48.102;11.620;2023-07-13T07:35:45;95451.41;;;24.48;48.42
22389;BME280;11362;48.102;11.620;2023-07-13T07:38:11;95452.56;;;24.51;48.32
22389;BME280;11362;48.102;11.620;2023-07-13T07:40:40;95458.44;;;24.56;48.09
22389;BME280;11362;48.102;11.620;2023-07-13T07:43:10;95460.41;;;24.59;47.85
22389;BME280;11362;48.102;11.620;2023-07-13T07:45:36;95461.69;;;24.51;47.36
22389;BME280;11362;48.102;11.620;2023-07-13T07:48:01;95468.09;;;24.45;47.34
22389;BME280;11362;48.102;11.620;2023-07-13T07:50:28;95473.44;;;24.32;47.38
22389;BME280;11362;48.102;11.620;2023-07-13T07:52:54;95483.44;;;24.26;47.45
22389;BME280;11362;48.102;11.620;2023-07-13T07:55:19;95477.16;;;24.22;47.81
22389;BME280;11362;48.102;11.620;2023-07-13T07:57:44;95483.34;;;24.33;47.35
22389;BME280;11362;48.102;11.620;2023-07-13T08:00:10;95482.03;;;24.41;47.17
22389;BME280;11362;48.102;11.620;2023-07-13T08:02:36;95486.38;;;24.46;47.16
22389;BME280;11362;48.102;11.620;2023-07-13T08:05:01;95488.53;;;24.61;47.22
22389;BME280;11362;48.102;11.620;2023-07-13T08:07:26;95492.25;;;24.51;47.04
22389;BME280;11362;48.102;11.620;2023-07-13T08:09:52;95500.47;;;24.28;48.29
22389;BME280;11362;48.102;11.620;2023-07-13T08:12:18;95494.31;;;24.44;48.45
22389;BME280;11362;48.102;11.620;2023-07-13T08:14:43;95506.31;;;24.67;48.29
22389;BME280;11362;48.102;11.620;2023-07-13T08:17:08;95500.25;;;24.76;48.10
22389;BME280;11362;48.102;11.620;2023-07-13T08:19:34;95494.94;;;24.58;48.36
22389;BME280;11362;48.102;11.620;2023-07-13T08:21:59;95502.94;;;24.53;48.84
22389;BME280;11362;48.102;11.620;2023-07-13T08:24:24;95502.69;;;24.70;48.67
22389;BME280;11362;48.102;11.620;2023-07-13T08:26:51;95497.03;;;24.47;48.71
22389;BME280;11362;48.102;11.620;2023-07-13T08:29:16;95504.56;;;24.50;48.46
22389;BME280;11362;48.102;11.620;2023-07-13T08:31:41;95501.34;;;24.52;48.53
22389;BME280;11362;48.102;11.620;2023-07-13T08:34:07;95510.84;;;24.54;48.77
22389;BME280;11362;48.102;11.620;2023-07-13T08:36:32;95513.25;;;24.52;48.61
22389;BME280;11362;48.102;11.620;2023-07-13T08:38:57;95517.22;;;24.51;48.87
22389;BME280;11362;48.102;11.620;2023-07-13T08:41:23;95520.47;;;24.46;48.91
22389;BME280;11362;48.102;11.620;2023-07-13T08:43:51;95528.44;;;24.44;49.23
22389;BME280;11362;48.102;11.620;2023-07-13T08:48:51;95525.78;;;24.34;49.52
22389;BME280;11362;48.102;11.620;2023-07-13T08:51:44;95521.66;;;24.45;49.41
22389;BME280;11362;48.102;11.620;2023-07-13T08:54:21;95533.03;;;24.54;48.92
22389;BME280;11362;48.102;11.620;2023-07-13T08:56:51;95529.91;;;24.52;49.46
22389;BME280;11362;48.102;11.620;2023-07-13T08:59:21;95531.41;;;24.60;49.37
22389;BME280;11362;48.102;11.620;2023-07-13T09:04:27;95536.41;;;24.72;49.41
22389;BME280;11362;48.102;11.620;2023-07-13T09:12:19;95534.94;;;24.64;49.49
22389;BME280;11362;48.102;11.620;2023-07-13T09:14:53;95528.81;;;24.76;49.10
22389;BME280;11362;48.102;11.620;2023-07-13T09:17:24;95517.03;;;24.95;48.61
22389;BME280;11362;48.102;11.620;2023-07-13T09:20:38;95522.38;;;25.09;48.46
22389;BME280;11362;48.102;11.620;2023-07-13T09:22:43;95511.91;;;25.17;48.82
22389;BME280;11362;48.102;11.620;2023-07-13T09:25:28;95524.97;;;25.20;49.80
22389;BME280;11362;48.102;11.620;2023-07-13T09:27:58;95519.78;;;25.22;50.46
22389;BME280;11362;48.102;11.620;2023-07-13T09:30:37;95522.94;;;25.24;50.76
22389;BME280;11362;48.102;11.620;2023-07-13T09:33:04;95519.34;;;25.27;50.25
22389;BME280;11362;48.102;11.620;2023-07-13T09:35:29;95524.03;;;25.30;49.76
22389;BME280;11362;48.102;11.620;2023-07-13T09:38:04;95533.53;;;25.32;49.58
22389;BME280;11362;48.102;11.620;2023-07-13T09:40:49;95532.31;;;25.33;49.32
22389;BME280;11362;48.102;11.620;2023-07-13T09:43:18;95539.44;;;25.34;49.02
22389;BME280;11362;48.102;11.620;2023-07-13T09:45:46;95539.03;;;25.36;48.87
22389;BME280;11362;48.102;11.620;2023-07-13T09:48:13;95536.25;;;25.36;48.79
22389;BME280;11362;48.102;11.620;2023-07-13T09:50:40;95534.28;;;25.36;48.73
22389;BME280;11362;48.102;11.620;2023-07-13T09:53:12;95536.63;;;25.38;48.56
22389;BME280;11362;48.102;11.620;2023-07-13T09:55:39;95525.94;;;25.36;48.19
22389;BME280;11362;48.102;11.620;2023-07-13T09:58:29;95528.94;;;25.22;48.30
22389;BME280;11362;48.102;11.620;2023-07-13T10:00:57;95535.41;;;25.12;48.46
22389;BME280;11362;48.102;11.620;2023-07-13T10:03:25;95531.91;;;25.08;48.04
22389;BME280;11362;48.102;11.620;2023-07-13T10:05:52;95521.25;;;25.03;47.84
22389;BME280;11362;48.102;11.620;2023-07-13T10:10:44;95538.19;;;25.12;47.76
22389;BME280;11362;48.102;11.620;2023-07-13T10:13:28;95541.50;;;25.04;47.35
22389;BME280;11362;48.102;11.620;2023-07-13T10:15:55;95540.25;;;25.08;47.57
22389;BME280;11362;48.102;11.620;2023-07-13T10:18:22;95538.88;;;25.20;47.30
22389;BME280;11362;48.102;11.620;2023-07-13T10:20:50;95539.66;;;25.20;47.35
22389;BME280;11362;48.102;11.620;2023-07-13T10:23:21;95546.81;;;25.21;47.07
22389;BME280;11362;48.102;11.620;2023-07-13T10:25:50;95544.50;;;25.16;46.16
22389;BME280;11362;48.102;11.620;2023-07-13T10:28:37;95548.31;;;24.99;46.16
22389;BME280;11362;48.102;11.620;2023-07-13T10:31:05;95542.22;;;24.81;46.14
22389;BME280;11362;48.102;11.620;2023-07-13T10:33:34;95541.88;;;24.79;46.32
22389;BME280;11362;48.102;11.620;2023-07-13T10:36:27;95537.69;;;24.94;46.11
22389;BME280;11362;48.102;11.620;2023-07-13T10:38:55;95544.25;;;25.07;45.97
22389;BME280;11362;48.102;11.620;2023-07-13T10:41:24;95548.41;;;24.92;45.84
22389;BME280;11362;48.102;11.620;2023-07-13T10:43:52;95540.81;;;24.96;46.04
22389;BME280;11362;48.102;11.620;2023-07-13T10:46:20;95536.53;;;24.92;45.73
22389;BME280;11362;48.102;11.620;2023-07-13T10:48:51;95544.66;;;24.79;45.34
22389;BME280;11362;48.102;11.620;2023-07-13T10:51:18;95543.84;;;24.79;44.99
22389;BME280;11362;48.102;11.620;2023-07-13T10:53:44;95547.88;;;24.74;44.64
22389;BME280;11362;48.102;11.620;2023-07-13T10:56:24;95541.63;;;24.67;44.71
22389;BME280;11362;48.102;11.620;2023-07-13T10:59:25;95539.09;;;24.79;45.09
22389;BME280;11362;48.102;11.620;2023-07-13T11:01:57;95545.47;;;24.76;43.98
22389;BME280;11362;48.102;11.620;2023-07-13T11:04:24;95545.22;;;24.67;43.58
22389;BME280;11362;48.102;11.620;2023-07-13T11:06:56;95548.31;;;24.73;43.57
22389;BME280;11362;48.102;11.620;2023-07-13T11:12:07;95547.28;;;24.90;43.88
22389;BME280;11362;48.102;11.620;2023-07-13T11:14:37;95549.91;;;25.00;42.62
22389;BME280;11362;48.102;11.620;2023-07-13T11:17:36;95551.09;;;24.99;42.19
22389;BME280;11362;48.102;11.620;2023-07-13T11:23:06;95553.97;;;24.92;39.73
22389;BME280;11362;48.102;11.620;2023-07-13T11:25:34;95556.38;;;24.90;39.69
22389;BME280;11362;48.102;11.620;2023-07-13T11:30:46;95550.78;;;24.94;38.02
22389;BME280;11362;48.102;11.620;2023-07-13T11:38:20;95537.78;;;25.14;39.70
22389;BME280;11362;48.102;11.620;2023-07-13T11:40:48;95532.97;;;25.18;39.71
22389;BME280;11362;48.102;11.620;2023-07-13T11:43:16;95516.34;;;25.14;39.53
22389;BME280;11362;48.102;11.620;2023-07-13T11:45:42;95518.00;;;25.08;38.96
22389;BME280;11362;48.102;11.620;2023-07-13T11:48:28;95510.88;;;25.07;38.73
22389;BME280;11362;48.102;11.620;2023-07-13T11:51:00;95511.00;;;25.00;38.42
22389;BME280;11362;48.102;11.620;2023-07-13T11:53:29;95516.16;;;24.98;37.79
22389;BME280;11362;48.102;11.620;2023-07-13T11:55:58;95511.47;;;24.95;38.16
22389;BME280;11362;48.102;11.620;2023-07-13T11:58:25;95508.72;;;24.92;38.45
22389;BME280;11362;48.102;11.620;2023-07-13T12:00:52;95497.97;;;24.94;38.47
22389;BME280;11362;48.102;11.620;2023-07-13T12:03:21;95502.22;;;25.02;38.68
22389;BME280;11362;48.102;11.620;2023-07-13T12:06:01;95504.13;;;25.08;39.05
22389;BME280;11362;48.102;11.620;2023-07-13T12:08:27;95498.50;;;25.12;38.65
22389;BME280;11362;48.102;11.620;2023-07-13T12:10:59;95509.22;;;25.10;38.43
22389;BME280;11362;48.102;11.620;2023-07-13T12:13:26;95506.91;;;25.08;38.22
22389;BME280;11362;48.102;11.620;2023-07-13T12:15:51;95505.28;;;25.11;38.38
22389;BME280;11362;48.102;11.620;2023-07-13T12:18:22;95495.28;;;25.13;38.82
22389;BME280;11362;48.102;11.620;2023-07-13T12:20:49;95491.97;;;25.22;38.83
22389;BME280;11362;48.102;11.620;2023-07-13T12:23:23;95495.53;;;25.26;38.52
22389;BME280;11362;48.102;11.620;2023-07-13T12:25:49;95494.38;;;25.23;38.33
22389;BME280;11362;48.102;11.620;2023-07-13T12:28:31;95491.59;;;25.23;38.35
22389;BME280;11362;48.102;11.620;2023-07-13T12:30:58;95487.25;;;25.19;37.68
22389;BME280;11362;48.102;11.620;2023-07-13T12:33:24;95490.22;;;25.08;37.22
22389;BME280;11362;48.102;11.620;2023-07-13T12:35:52;95488.31;;;25.02;37.24
22389;BME280;11362;48.102;11.620;2023-07-13T12:38:18;95486.69;;;25.04;37.50
22389;BME280;11362;48.102;11.620;2023-07-13T12:40:43;95491.78;;;25.09;37.53
22389;BME280;11362;48.102;11.620;2023-07-13T12:43:13;95490.22;;;25.08;37.86
22389;BME280;11362;48.102;11.620;2023-07-13T12:45:54;95491.03;;;25.05;37.29
22389;BME280;11362;48.102;11.620;2023-07-13T12:48:20;95473.59;;;25.05;37.16
22389;BME280;11362;48.102;11.620;2023-07-13T12:50:47;95473.66;;;25.01;37.36
22389;BME280;11362;48.102;11.620;2023-07-13T12:53:14;95478.66;;;25.10;37.58
22389;BME280;11362;48.102;11.620;2023-07-13T12:55:46;95476.69;;;25.10;37.82
22389;BME280;11362;48.102;11.620;2023-07-13T12:58:25;95477.41;;;25.14;37.94
22389;BME280;11362;48.102;11.620;2023-07-13T13:00:51;95477.34;;;25.18;37.79
22389;BME280;11362;48.102;11.620;2023-07-13T13:03:24;95476.63;;;25.14;37.76
22389;BME280;11362;48.102;11.620;2023-07-13T13:05:56;95469.06;;;25.14;38.15
22389;BME280;11362;48.102;11.620;2023-07-13T13:08:22;95471.69;;;25.25;38.25
22389;BME280;11362;48.102;11.620;2023-07-13T13:10:47;95462.81;;;25.33;38.37
22389;BME280;11362;48.102;11.620;2023-07-13T13:13:12;95466.72;;;25.36;38.30
22389;BME280;11362;48.102;11.620;2023-07-13T13:15:37;95465.88;;;25.39;38.88
22389;BME280;11362;48.102;11.620;2023-07-13T13:18:04;95472.97;;;25.43;38.52
22389;BME280;11362;48.102;11.620;2023-07-13T13:20:30;95473.69;;;25.47;38.73